sensor_id;sensor_type;location;lat;lon;timestamp;temperature;humidity
30250;DHT22;17064;47.974;13.826;2023-09-19T00:01:59;16.20;99.90
30250;DHT22;17064;47.974;13.826;2023-09-19T00:06:59;16.20;99.90
30250;DHT22;17064;47.974;13.826;2023-09-19T00:12:05;16.30;99.90
30250;DHT22;17064;47.974;13.826;2023-09-19T00:17:06;16.20;99.90
30250;DHT22;17064;47.974;13.826;2023-09-19T00:22:08;16.20;99.90
30250;DHT22;17064;47.974;13.826;2023-09-19T00:27:09;16.10;99.90
30250;DHT22;17064;47.974;13.826;2023-09-19T00:32:10;16.00;99.90
30250;DHT22;17064;47.974;13.826;2023-09-19T00:37:10;15.90;99.90
30250;DHT22;17064;47.974;13.826;2023-09-19T00:42:19;15.80;99.90
30250;DHT22;17064;47.974;13.826;2023-09-19T00:47:21;15.70;99.90
30250;DHT22;17064;47.974;13.826;2023-09-19T00:52:22;15.70;99.90
30250;DHT22;17064;47.974;13.826;2023-09-19T00:57:23;15.70;99.90
30250;DHT22;17064;47.974;13.826;2023-09-19T01:02:24;15.70;99.90
30250;DHT22;17064;47.974;13.826;2023-09-19T01:07:31;15.60;99.90
30250;DHT22;17064;47.974;13.826;2023-09-19T01:17:59;15.50;99.90
30250;DHT22;17064;47.974;13.826;2023-09-19T01:28:31;15.40;99.90
30250;DHT22;17064;47.974;13.826;2023-09-19T01:39:06;15.30;99.90
30250;DHT22;17064;47.974;13.826;2023-09-19T01:44:17;15.30;99.90
30250;DHT22;17064;47.974;13.826;2023-09-19T01:49:38;15.30;99.90
30250;DHT22;17064;47.974;13.826;2023-09-19T01:55:08;15.30;99.90
30250;DHT22;17064;47.974;13.826;2023-09-19T02:00:11;15.30;99.90
30250;DHT22;17064;47.974;13.826;2023-09-19T02:05:13;15.30;99.90
30250;DHT22;17064;47.974;13.826;2023-09-19T02:10:23;15.30;99.90
30250;DHT22;17064;47.974;13.826;2023-09-19T02:15:24;15.30;99.90
30250;DHT22;17064;47.974;13.826;2023-09-19T02:20:25;15.30;99.90
30250;DHT22;17064;47.974;13.826;2023-09-19T02:25:26;15.30;99.90
30250;DHT22;17064;47.974;13.826;2023-09-19T02:30:28;15.30;99.90
30250;DHT22;17064;47.974;13.826;2023-09-19T02:35:29;15.30;99.90
30250;DHT22;17064;47.974;13.826;2023-09-19T02:40:35;15.30;99.90
30250;DHT22;17064;47.974;13.826;2023-09-19T02:45:36;15.30;99.90
30250;DHT22;17064;47.974;13.826;2023-09-19T02:50:37;15.30;99.90
30250;DHT22;17064;47.974;13.826;2023-09-19T02:55:40;15.20;99.90
30250;DHT22;17064;47.974;13.826;2023-09-19T03:00:41;15.10;99.90
30250;DHT22;17064;47.974;13.826;2023-09-19T03:05:42;15.00;99.90
30250;DHT22;17064;47.974;13.826;2023-09-19T03:10:47;15.00;99.90
30250;DHT22;17064;47.974;13.826;2023-09-19T03:15:48;15.00;99.90
30250;DHT22;17064;47.974;13.826;2023-09-19T03:20:54;14.90;99.90
30250;DHT22;17064;47.974;13.826;2023-09-19T03:25:55;15.00;99.90
30250;DHT22;17064;47.974;13.826;2023-09-19T03:31:05;15.00;99.90
30250;DHT22;17064;47.974;13.826;2023-09-19T03:36:06;15.10;99.90
30250;DHT22;17064;47.974;13.826;2023-09-19T03:41:07;15.10;99.90
30250;DHT22;17064;47.974;13.826;2023-09-19T03:46:08;15.10;99.90
30250;DHT22;17064;47.974;13.826;2023-09-19T03:51:09;15.10;99.90
30250;DHT22;17064;47.974;13.826;2023-09-19T03:56:09;15.10;99.90
30250;DHT22;17064;47.974;13.826;2023-09-19T04:01:10;15.10;99.90
30250;DHT22;17064;47.974;13.826;2023-09-19T04:06:17;15.10;99.90
30250;DHT22;17064;47.974;13.826;2023-09-19T04:11:18;15.10;99.90
30250;DHT22;17064;47.974;13.826;2023-09-19T04:16:18;15.10;99.90
30250;DHT22;17064;47.974;13.826;2023-09-19T04:21:20;15.10;99.90
30250;DHT22;17064;47.974;13.826;2023-09-19T04:26:20;15.10;99.90
30250;DHT22;17064;47.974;13.826;2023-09-19T04:31:22;15.10;99.90
30250;DHT22;17064;47.974;13.826;2023-09-19T04:36:22;15.10;99.90
30250;DHT22;17064;47.974;13.826;2023-09-19T04:41:23;15.10;99.90
30250;DHT22;17064;47.974;13.826;2023-09-19T04:46:25;15.10;99.90
30250;DHT22;17064;47.974;13.826;2023-09-19T04:51:25;15.10;99.90
30250;DHT22;17064;47.974;13.826;2023-09-19T04:56:29;15.10;99.90
30250;DHT22;17064;47.974;13.826;2023-09-19T05:01:30;15.20;99.90
30250;DHT22;17064;47.974;13.826;2023-09-19T05:06:31;15.20;99.90
30250;DHT22;17064;47.974;13.826;2023-09-19T05:11:35;15.40;99.90
30250;DHT22;17064;47.974;13.826;2023-09-19T05:16:39;15.40;99.90
30250;DHT22;17064;47.974;13.826;2023-09-19T05:21:40;15.60;99.90
30250;DHT22;17064;47.974;13.826;2023-09-19T05:26:41;15.70;99.90
30250;DHT22;17064;47.974;13.826;2023-09-19T05:31:42;15.90;99.90
30250;DHT22;17064;47.974;13.826;2023-09-19T05:36:43;15.90;99.90
30250;DHT22;17064;47.974;13.826;2023-09-19T05:41:44;15.80;99.90
30250;DHT22;17064;47.974;13.826;2023-09-19T05:46:45;15.80;99.90
30250;DHT22;17064;47.974;13.826;2023-09-19T05:51:48;15.80;99.90
30250;DHT22;17064;47.974;13.826;2023-09-19T05:56:49;15.80;99.90
30250;DHT22;17064;47.974;13.826;2023-09-19T06:01:53;15.80;99.90
30250;DHT22;17064;47.974;13.826;2023-09-19T06:06:53;15.90;99.90
30250;DHT22;17064;47.974;13.826;2023-09-19T06:11:54;15.90;99.90
30250;DHT22;17064;47.974;13.826;2023-09-19T06:16:56;15.90;99.90
30250;DHT22;17064;47.974;13.826;2023-09-19T06:21:56;16.00;99.90
30250;DHT22;17064;47.974;13.826;2023-09-19T06:27:00;16.00;99.90
30250;DHT22;17064;47.974;13.826;2023-09-19T06:32:01;16.20;99.90
30250;DHT22;17064;47.974;13.826;2023-09-19T06:37:02;16.30;99.90
30250;DHT22;17064;47.974;13.826;2023-09-19T06:42:04;16.50;99.90
30250;DHT22;17064;47.974;13.826;2023-09-19T06:47:05;16.60;99.90
30250;DHT22;17064;47.974;13.826;2023-09-19T06:52:07;16.70;99.90
30250;DHT22;17064;47.974;13.826;2023-09-19T06:57:07;16.80;99.90
30250;DHT22;17064;47.974;13.826;2023-09-19T07:02:11;16.90;99.90
30250;DHT22;17064;47.974;13.826;2023-09-19T07:07:12;17.00;99.90
30250;DHT22;17064;47.974;13.826;2023-09-19T07:12:13;17.10;99.90
30250;DHT22;17064;47.974;13.826;2023-09-19T07:17:14;17.10;99.90
30250;DHT22;17064;47.974;13.826;2023-09-19T07:22:18;17.10;99.90
30250;DHT22;17064;47.974;13.826;2023-09-19T07:27:18;17.10;99.90
30250;DHT22;17064;47.974;13.826;2023-09-19T07:32:19;17.20;99.90
30250;DHT22;17064;47.974;13.826;2023-09-19T07:37:20;17.20;99.90
30250;DHT22;17064;47.974;13.826;2023-09-19T07:42:21;17.30;99.90
30250;DHT22;17064;47.974;13.826;2023-09-19T07:47:22;17.50;99.90
30250;DHT22;17064;47.974;13.826;2023-09-19T07:52:23;17.60;99.90
30250;DHT22;17064;47.974;13.826;2023-09-19T07:57:24;17.70;99.90
30250;DHT22;17064;47.974;13.826;2023-09-19T08:02:25;17.80;99.90
30250;DHT22;17064;47.974;13.826;2023-09-19T08:07:26;17.80;99.90
30250;DHT22;17064;47.974;13.826;2023-09-19T08:12:29;17.90;99.90
30250;DHT22;17064;47.974;13.826;2023-09-19T08:17:34;17.90;99.90
30250;DHT22;17064;47.974;13.826;2023-09-19T08:22:35;18.10;99.90
30250;DHT22;17064;47.974;13.826;2023-09-19T08:27:36;18.10;99.90
30250;DHT22;17064;47.974;13.826;2023-09-19T08:32:36;18.20;99.90
30250;DHT22;17064;47.974;13.826;2023-09-19T08:37:37;18.30;99.90
30250;DHT22;17064;47.974;13.826;2023-09-19T08:42:51;18.40;99.90
30250;DHT22;17064;47.974;13.826;2023-09-19T08:53:19;19.20;99.90
30250;DHT22;17064;47.974;13.826;2023-09-19T08:58:21;19.40;99.90
30250;DHT22;17064;47.974;13.826;2023-09-19T09:03:23;19.50;99.90
30250;DHT22;17064;47.974;13.826;2023-09-19T09:08:25;19.70;99.90
30250;DHT22;17064;47.974;13.826;2023-09-19T09:13:26;20.10;99.90
30250;DHT22;17064;47.974;13.826;2023-09-19T09:18:29;20.30;99.90
30250;DHT22;17064;47.974;13.826;2023-09-19T09:23:32;20.30;99.90
30250;DHT22;17064;47.974;13.826;2023-09-19T09:28:34;19.90;99.90
30250;DHT22;17064;47.974;13.826;2023-09-19T09:33:36;19.80;99.90
30250;DHT22;17064;47.974;13.826;2023-09-19T09:38:47;19.80;99.90
30250;DHT22;17064;47.974;13.826;2023-09-19T09:43:48;20.00;99.90
30250;DHT22;17064;47.974;13.826;2023-09-19T09:48:58;20.20;99.90
30250;DHT22;17064;47.974;13.826;2023-09-19T09:54:17;20.30;99.90
30250;DHT22;17064;47.974;13.826;2023-09-19T09:59:21;20.20;99.90
30250;DHT22;17064;47.974;13.826;2023-09-19T10:04:28;20.30;99.90
30250;DHT22;17064;47.974;13.826;2023-09-19T10:09:46;20.50;99.90
30250;DHT22;17064;47.974;13.826;2023-09-19T10:14:48;20.60;99.90
30250;DHT22;17064;47.974;13.826;2023-09-19T10:19:58;20.70;99.90
30250;DHT22;17064;47.974;13.826;2023-09-19T10:24:59;20.70;99.90
30250;DHT22;17064;47.974;13.826;2023-09-19T10:30:02;20.70;99.90
30250;DHT22;17064;47.974;13.826;2023-09-19T10:35:11;20.60;99.90
30250;DHT22;17064;47.974;13.826;2023-09-19T10:40:14;20.80;99.90
30250;DHT22;17064;47.974;13.826;2023-09-19T10:45:17;21.10;99.90
30250;DHT22;17064;47.974;13.826;2023-09-19T10:50:21;21.40;99.90
30250;DHT22;17064;47.974;13.826;2023-09-19T10:55:22;21.20;99.90
30250;DHT22;17064;47.974;13.826;2023-09-19T11:00:24;21.10;99.90
30250;DHT22;17064;47.974;13.826;2023-09-19T11:05:28;21.30;99.90
30250;DHT22;17064;47.974;13.826;2023-09-19T11:10:49;21.80;99.90
30250;DHT22;17064;47.974;13.826;2023-09-19T11:26:40;21.40;99.90
30250;DHT22;17064;47.974;13.826;2023-09-19T11:31:47;21.30;99.90
30250;DHT22;17064;47.974;13.826;2023-09-19T11:36:49;21.20;99.90
30250;DHT22;17064;47.974;13.826;2023-09-19T11:41:50;21.20;99.90
30250;DHT22;17064;47.974;13.826;2023-09-19T11:46:56;21.00;99.90
30250;DHT22;17064;47.974;13.826;2023-09-19T11:52:00;20.90;99.90
30250;DHT22;17064;47.974;13.826;2023-09-19T11:57:01;21.00;99.90
30250;DHT22;17064;47.974;13.826;2023-09-19T12:02:07;20.80;99.90
30250;DHT22;17064;47.974;13.826;2023-09-19T12:07:11;20.70;99.90
30250;DHT22;17064;47.974;13.826;2023-09-19T12:12:26;20.70;99.90
30250;DHT22;17064;47.974;13.826;2023-09-19T12:17:38;20.70;99.90
30250;DHT22;17064;47.974;13.826;2023-09-19T12:22:43;20.90;99.90
30250;DHT22;17064;47.974;13.826;2023-09-19T12:27:48;21.10;99.90
30250;DHT22;17064;47.974;13.826;2023-09-19T12:32:53;20.90;99.90
30250;DHT22;17064;47.974;13.826;2023-09-19T12:37:54;20.90;99.90
30250;DHT22;17064;47.974;13.826;2023-09-19T12:42:56;20.70;99.90
30250;DHT22;17064;47.974;13.826;2023-09-19T12:48:37;20.80;99.90
30250;DHT22;17064;47.974;13.826;2023-09-19T12:53:45;20.90;99.90
30250;DHT22;17064;47.974;13.826;2023-09-19T12:58:55;20.80;99.90
30250;DHT22;17064;47.974;13.826;2023-09-19T13:04:15;20.80;99.90
30250;DHT22;17064;47.974;13.826;2023-09-19T13:09:21;20.60;99.90
30250;DHT22;17064;47.974;13.826;2023-09-19T13:14:29;20.50;99.90
30250;DHT22;17064;47.974;13.826;2023-09-19T13:19:40;20.50;99.90
30250;DHT22;17064;47.974;13.826;2023-09-19T13:24:41;20.60;99.90
30250;DHT22;17064;47.974;13.826;2023-09-19T13:29:42;20.90;99.90
30250;DHT22;17064;47.974;13.826;2023-09-19T13:34:42;21.50;99.90
30250;DHT22;17064;47.974;13.826;2023-09-19T13:39:43;22.70;99.90
30250;DHT22;17064;47.974;13.826;2023-09-19T13:44:48;23.90;99.90
30250;DHT22;17064;47.974;13.826;2023-09-19T13:49:48;24.60;98.50
30250;DHT22;17064;47.974;13.826;2023-09-19T13:54:51;24.80;94.20
30250;DHT22;17064;47.974;13.826;2023-09-19T13:59:53;24.30;93.80
30250;DHT22;17064;47.974;13.826;2023-09-19T14:04:55;23.60;96.70
30250;DHT22;17064;47.974;13.826;2023-09-19T14:09:55;23.00;97.20
30250;DHT22;17064;47.974;13.826;2023-09-19T14:14:56;22.90;97.40
30250;DHT22;17064;47.974;13.826;2023-09-19T14:19:57;22.90;97.40
30250;DHT22;17064;47.974;13.826;2023-09-19T14:24:57;22.20;99.90
30250;DHT22;17064;47.974;13.826;2023-09-19T14:30:00;21.40;99.90
30250;DHT22;17064;47.974;13.826;2023-09-19T14:35:01;21.30;99.90
30250;DHT22;17064;47.974;13.826;2023-09-19T14:40:01;21.10;99.90
30250;DHT22;17064;47.974;13.826;2023-09-19T14:45:04;20.90;99.90
30250;DHT22;17064;47.974;13.826;2023-09-19T14:50:06;21.30;99.90
30250;DHT22;17064;47.974;13.826;2023-09-19T14:55:07;21.40;99.90
30250;DHT22;17064;47.974;13.826;2023-09-19T15:00:13;21.10;99.90
30250;DHT22;17064;47.974;13.826;2023-09-19T15:05:14;20.80;99.90
30250;DHT22;17064;47.974;13.826;2023-09-19T15:10:16;20.50;99.90
30250;DHT22;17064;47.974;13.826;2023-09-19T15:15:19;20.20;99.90
30250;DHT22;17064;47.974;13.826;2023-09-19T15:20:20;20.00;99.90
30250;DHT22;17064;47.974;13.826;2023-09-19T15:25:21;19.90;99.90
30250;DHT22;17064;47.974;13.826;2023-09-19T15:30:23;19.80;99.90
30250;DHT22;17064;47.974;13.826;2023-09-19T15:35:25;19.70;99.90
30250;DHT22;17064;47.974;13.826;2023-09-19T15:40:27;19.70;99.90
30250;DHT22;17064;47.974;13.826;2023-09-19T15:45:28;19.50;99.90
30250;DHT22;17064;47.974;13.826;2023-09-19T15:50:31;19.30;99.90
30250;DHT22;17064;47.974;13.826;2023-09-19T15:55:33;19.20;99.90
30250;DHT22;17064;47.974;13.826;2023-09-19T16:00:42;19.10;99.90
30250;DHT22;17064;47.974;13.826;2023-09-19T16:05:44;19.00;99.90
30250;DHT22;17064;47.974;13.826;2023-09-19T16:10:47;18.90;99.90
30250;DHT22;17064;47.974;13.826;2023-09-19T16:15:48;18.80;99.90
30250;DHT22;17064;47.974;13.826;2023-09-19T16:20:51;18.60;99.90
30250;DHT22;17064;47.974;13.826;2023-09-19T16:26:09;18.50;99.90
30250;DHT22;17064;47.974;13.826;2023-09-19T16:31:11;18.40;99.90
30250;DHT22;17064;47.974;13.826;2023-09-19T16:36:19;18.30;99.90
30250;DHT22;17064;47.974;13.826;2023-09-19T16:41:21;18.10;99.90
30250;DHT22;17064;47.974;13.826;2023-09-19T16:46:23;18.00;99.90
30250;DHT22;17064;47.974;13.826;2023-09-19T16:51:24;17.80;99.90
30250;DHT22;17064;47.974;13.826;2023-09-19T16:56:28;17.60;99.90
30250;DHT22;17064;47.974;13.826;2023-09-19T17:01:33;17.40;99.90
30250;DHT22;17064;47.974;13.826;2023-09-19T17:06:36;17.20;99.90
30250;DHT22;17064;47.974;13.826;2023-09-19T17:11:40;17.10;99.90
30250;DHT22;17064;47.974;13.826;2023-09-19T17:16:42;17.00;99.90
30250;DHT22;17064;47.974;13.826;2023-09-19T17:21:43;16.80;99.90
30250;DHT22;17064;47.974;13.826;2023-09-19T17:26:47;16.60;99.90
30250;DHT22;17064;47.974;13.826;2023-09-19T17:31:52;16.50;99.90
30250;DHT22;17064;47.974;13.826;2023-09-19T17:36:55;16.30;99.90
30250;DHT22;17064;47.974;13.826;2023-09-19T17:41:56;16.10;99.90
30250;DHT22;17064;47.974;13.826;2023-09-19T17:46:58;16.10;99.90
30250;DHT22;17064;47.974;13.826;2023-09-19T17:51:59;16.00;99.90
30250;DHT22;17064;47.974;13.826;2023-09-19T17:57:00;15.80;99.90
30250;DHT22;17064;47.974;13.826;2023-09-19T18:02:02;15.80;99.90
30250;DHT22;17064;47.974;13.826;2023-09-19T18:07:06;15.70;99.90
30250;DHT22;17064;47.974;13.826;2023-09-19T18:12:09;15.60;99.90
30250;DHT22;17064;47.974;13.826;2023-09-19T18:17:10;15.50;99.90
30250;DHT22;17064;47.974;13.826;2023-09-19T18:22:15;15.40;99.90
30250;DHT22;17064;47.974;13.826;2023-09-19T18:27:18;15.30;99.90
30250;DHT22;17064;47.974;13.826;2023-09-19T18:32:20;15.20;99.90
30250;DHT22;17064;47.974;13.826;2023-09-19T18:37:22;15.10;99.90
30250;DHT22;17064;47.974;13.826;2023-09-19T18:42:24;15.00;99.90
30250;DHT22;17064;47.974;13.826;2023-09-19T18:47:27;14.90;99.90
30250;DHT22;17064;47.974;13.826;2023-09-19T18:52:29;14.80;99.90
30250;DHT22;17064;47.974;13.826;2023-09-19T18:57:32;14.70;99.90
30250;DHT22;17064;47.974;13.826;2023-09-19T19:02:36;14.60;99.90
30250;DHT22;17064;47.974;13.826;2023-09-19T19:07:40;14.50;99.90
30250;DHT22;17064;47.974;13.826;2023-09-19T19:12:41;14.40;99.90
30250;DHT22;17064;47.974;13.826;2023-09-19T19:17:43;14.30;99.90
30250;DHT22;17064;47.974;13.826;2023-09-19T19:22:44;14.20;99.90
30250;DHT22;17064;47.974;13.826;2023-09-19T19:27:46;14.10;99.90
30250;DHT22;17064;47.974;13.826;2023-09-19T19:32:49;14.00;99.90
30250;DHT22;17064;47.974;13.826;2023-09-19T19:37:51;14.00;99.90
30250;DHT22;17064;47.974;13.826;2023-09-19T19:42:53;13.90;99.90
30250;DHT22;17064;47.974;13.826;2023-09-19T19:47:55;13.80;99.90
30250;DHT22;17064;47.974;13.826;2023-09-19T19:52:56;13.80;99.90
30250;DHT22;17064;47.974;13.826;2023-09-19T19:57:58;13.70;99.90
30250;DHT22;17064;47.974;13.826;2023-09-19T20:02:59;13.70;99.90
30250;DHT22;17064;47.974;13.826;2023-09-19T20:08:04;13.80;99.90
30250;DHT22;17064;47.974;13.826;2023-09-19T20:13:09;13.80;99.90
30250;DHT22;17064;47.974;13.826;2023-09-19T20:18:11;13.70;99.90
30250;DHT22;17064;47.974;13.826;2023-09-19T20:23:13;13.60;99.90
30250;DHT22;17064;47.974;13.826;2023-09-19T20:28:15;13.50;99.90
30250;DHT22;17064;47.974;13.826;2023-09-19T20:33:17;13.40;99.90
30250;DHT22;17064;47.974;13.826;2023-09-19T20:38:18;13.40;99.90
30250;DHT22;17064;47.974;13.826;2023-09-19T20:43:19;13.30;99.90
30250;DHT22;17064;47.974;13.826;2023-09-19T20:48:20;13.20;99.90
30250;DHT22;17064;47.974;13.826;2023-09-19T20:53:21;13.30;99.90
30250;DHT22;17064;47.974;13.826;2023-09-19T20:58:22;13.30;99.90
30250;DHT22;17064;47.974;13.826;2023-09-19T21:03:23;13.20;99.90
30250;DHT22;17064;47.974;13.826;2023-09-19T21:08:24;13.10;99.90
30250;DHT22;17064;47.974;13.826;2023-09-19T21:13:25;13.10;99.90
30250;DHT22;17064;47.974;13.826;2023-09-19T21:18:46;13.10;99.90
30250;DHT22;17064;47.974;13.826;2023-09-19T21:24:06;13.10;99.90
30250;DHT22;17064;47.974;13.826;2023-09-19T21:29:28;13.10;99.90
30250;DHT22;17064;47.974;13.826;2023-09-19T21:34:48;13.00;99.90
30250;DHT22;17064;47.974;13.826;2023-09-19T21:40:08;13.00;99.90
30250;DHT22;17064;47.974;13.826;2023-09-19T21:45:28;12.90;99.90
30250;DHT22;17064;47.974;13.826;2023-09-19T21:50:54;12.90;99.90
30250;DHT22;17064;47.974;13.826;2023-09-19T21:56:14;12.80;99.90
30250;DHT22;17064;47.974;13.826;2023-09-19T22:01:36;12.70;99.90
30250;DHT22;17064;47.974;13.826;2023-09-19T22:06:58;12.60;99.90
30250;DHT22;17064;47.974;13.826;2023-09-19T22:12:18;12.60;99.90
30250;DHT22;17064;47.974;13.826;2023-09-19T22:17:38;12.50;99.90
30250;DHT22;17064;47.974;13.826;2023-09-19T22:23:00;12.50;99.90
30250;DHT22;17064;47.974;13.826;2023-09-19T22:28:19;12.40;99.90
30250;DHT22;17064;47.974;13.826;2023-09-19T22:33:40;12.50;99.90
30250;DHT22;17064;47.974;13.826;2023-09-19T22:38:59;12.50;99.90
30250;DHT22;17064;47.974;13.826;2023-09-19T22:44:19;12.50;99.90
30250;DHT22;17064;47.974;13.826;2023-09-19T22:49:40;12.40;99.90
30250;DHT22;17064;47.974;13.826;2023-09-19T22:55:01;12.40;99.90
30250;DHT22;17064;47.974;13.826;2023-09-19T23:00:22;12.30;99.90
30250;DHT22;17064;47.974;13.826;2023-09-19T23:05:46;12.30;99.90
30250;DHT22;17064;47.974;13.826;2023-09-19T23:11:05;12.40;99.90
30250;DHT22;17064;47.974;13.826;2023-09-19T23:16:28;12.40;99.90
30250;DHT22;17064;47.974;13.826;2023-09-19T23:21:52;12.40;99.90
30250;DHT22;17064;47.974;13.826;2023-09-19T23:27:13;12.50;99.90
30250;DHT22;17064;47.974;13.826;2023-09-19T23:32:43;12.50;99.90
30250;DHT22;17064;47.974;13.826;2023-09-19T23:38:02;12.40;99.90
30250;DHT22;17064;47.974;13.826;2023-09-19T23:43:23;12.50;99.90
30250;DHT22;17064;47.974;13.826;2023-09-19T23:48:43;12.50;99.90
30250;DHT22;17064;47.974;13.826;2023-09-19T23:54:06;12.50;99.90
30250;DHT22;17064;47.974;13.826;2023-09-19T23:59:32;12.50;99.90
